Wednesday, January 17, 2018, 9:55 AM EST
Back to Local

KBOS, Boston Logan International

Location: Boston, MA, United States Lat: 42.367
Local Time: 9:55 AM EST (14:55 GMT) Lon: -71.017
Time Zone: US/Eastern Elev: 19 ft

Show me the last for .
Show Decoded

2018-01-17 09:14 METAR KBOS 171414Z 06005KT 1SM R04R/3500V5500FT -SN BR VV005 00/00 A3029 RMK AO2
                 P0001 T00000000 =
2018-01-17 09:06 METAR KBOS 171406Z 06004KT 1/4SM R04R/4500V6000FT -SN BR VV005 00/00 A3029 RMK
                 AO2 SFC VIS 1 P0001 T00000000 =
2018-01-17 08:54 METAR KBOS 171354Z 07004KT 1/4SM R04R/4500VP6000FT -SN BR OVC004 00/00 A3029 RMK
                 AO2 SFC VIS 1 1/4 SLP257 P0004 T00000000 =
2018-01-17 08:23 METAR KBOS 171323Z 06004KT 1/4SM R04R/4000V5000FT -SN BR OVC004 00/00 A3030 RMK
                 AO2 SFC VIS 1 P0002 T00000000 =
2018-01-17 08:14 METAR KBOS 171314Z 06004KT 1/4SM R04R/3000V5000FT -SN BR VV005 00/00 A3030 RMK
                 AO2 SFC VIS 3/4 P0002 T00000000 =
2018-01-17 07:54 METAR KBOS 171254Z 05004KT 1SM R04R/4000V6000FT -SN BR SCT003 OVC009 00/00 A3030
                 RMK AO2 SLP259 P0003 T00000000 =
2018-01-17 07:09 METAR KBOS 171209Z 06004KT 1 1/4SM -SN BR BKN003 OVC017 00/M01 A3031 RMK AO2
                 P0001 T00001006 =
2018-01-17 06:54 METAR KBOS 171154Z 06003KT 1SM R04R/5500VP6000FT -SN BR FEW005 OVC019 00/M01
                 A3032 RMK AO2 SLP265 P0003 60003 70003 T00001006 10006 20000 56012 =
2018-01-17 06:41 METAR KBOS 171141Z 00000KT 1 1/4SM -SN BR FEW005 OVC018 00/M01 A3033 RMK AO2
                 P0002 T00001006 =
2018-01-17 06:20 METAR KBOS 171120Z 06004KT 1 1/4SM -SN BR OVC020 00/M01 A3032 RMK AO2 P0001
                 T00001011 =
2018-01-17 05:54 METAR KBOS 171054Z 09003KT 2SM -SN BR SCT009 SCT015 OVC022 00/M02 A3033 RMK AO2
                 SNB36 SLP271 P0000 T00001017 =
2018-01-17 05:49 METAR KBOS 171049Z 09004KT 3SM -SN BR BKN009 BKN015 OVC024 00/M02 A3033 RMK AO2
                 SNB36 P0000 =
2018-01-17 05:41 METAR KBOS 171041Z 08003KT 6SM -SN BR BKN010 BKN015 OVC031 00/M02 A3034 RMK AO2
                 SNB36 P0000 T00001022 =
2018-01-17 04:54 METAR KBOS 170954Z 15004KT 10SM OVC033 00/M02 A3035 RMK AO2 SLP277 T00001022 =
2018-01-17 03:54 METAR KBOS 170854Z 15005KT 10SM OVC035 00/M03 A3035 RMK AO2 SLP278 T00001028
                 58012 =
2018-01-17 02:54 METAR KBOS 170754Z 16005KT 10SM OVC034 00/M02 A3038 RMK AO2 SLP287 T00001022 =
2018-01-17 01:54 METAR KBOS 170654Z 16003KT 10SM OVC031 00/M02 A3039 RMK AO2 SLP289 T00001022 =
2018-01-17 00:54 METAR KBOS 170554Z 18005KT 10SM BKN035 OVC070 00/M02 A3039 RMK AO2 SLP289
                 T00001022 10000 21006 56018 =
2018-01-16 23:54 METAR KBOS 170454Z 17005KT 10SM FEW034 OVC070 M01/M03 A3040 RMK AO2 SLP293
                 T10061028 400061067 =
2018-01-16 22:54 METAR KBOS 170354Z 16006KT 10SM SCT033 OVC075 00/M03 A3042 RMK AO2 SLP300
                 T00001028 =
2018-01-16 21:54 METAR KBOS 170254Z 16006KT 10SM FEW012 BKN037 OVC120 00/M03 A3044 RMK AO2 SLP307
                 T00001028 58007 =
2018-01-16 20:54 METAR KBOS 170154Z 14006KT 10SM FEW014 SCT032 OVC042 00/M03 A3045 RMK AO2 SLP311
                 T00001028 =
2018-01-16 19:54 METAR KBOS 170054Z 15005KT 10SM FEW013 BKN032 OVC080 00/M03 A3046 RMK AO2 SLP314
                 T00001033 =
2018-01-16 18:54 METAR KBOS 162354Z 13004KT 10SM FEW013 SCT033 OVC080 00/M03 A3046 RMK AO2 SLP314
                 T00001028 10006 21006 51002 =
2018-01-16 17:54 METAR KBOS 162254Z 13006KT 10SM FEW028 BKN080 OVC200 M01/M03 A3046 RMK AO2
                 SLP313 T10061033 =
2018-01-16 16:54 METAR KBOS 162154Z 14004KT 10SM FEW029 BKN090 BKN200 M01/M03 A3046 RMK AO2
                 SLP313 T10061033 =
2018-01-16 15:54 METAR KBOS 162054Z 13003KT 10SM FEW030 BKN080 BKN200 00/M04 A3046 RMK AO2 SLP312
                 T00001044 56004 =
2018-01-16 14:54 METAR KBOS 161954Z 14004KT 10SM FEW028 BKN085 BKN200 00/M05 A3046 RMK AO2 SLP314
                 T00001050 =
2018-01-16 13:54 METAR KBOS 161854Z 14004KT 10SM FEW028 BKN090 BKN200 00/M05 A3046 RMK AO2 SLP313
                 T00001050 =
2018-01-16 12:54 METAR KBOS 161754Z 14004KT 10SM FEW028 BKN090 M01/M06 A3047 RMK AO2 SLP316
                 T10061061 11006 21061 56018 =
2018-01-16 12:51 METAR KBOS 161751Z 15003KT 10SM FEW028 BKN090 M01/M06 A3047 RMK AO2 =
2018-01-16 12:12 METAR KBOS 161712Z 13004KT 10SM BKN028 BKN250 M01/M07 A3048 RMK AO2 T10111067 =
2018-01-16 11:54 METAR KBOS 161654Z 17003KT 10SM FEW035 BKN250 M01/M06 A3049 RMK AO2 SLP325
                 T10111061 =
2018-01-16 10:54 METAR KBOS 161554Z 12004KT 10SM OVC035 M03/M06 A3052 RMK AO2 SLP334 T10281061 =

Support USWX by starting your Amazon purchase here.